createdAt,value
2023-01-11T00:02:12.145Z,61.80
2023-01-11T00:04:44.691Z,61.57
2023-01-11T00:07:17.213Z,61.58
2023-01-11T00:09:49.816Z,61.73
2023-01-11T00:12:22.527Z,61.31
2023-01-11T00:14:55.052Z,61.03
2023-01-11T00:17:29.123Z,62.13
2023-01-11T00:20:01.763Z,61.88
2023-01-11T00:22:34.366Z,61.94
2023-01-11T00:25:07.081Z,62.39
2023-01-11T00:27:39.597Z,61.59
2023-01-11T00:30:12.405Z,61.00
2023-01-11T00:32:45.025Z,61.46
2023-01-11T00:35:17.597Z,62.24
2023-01-11T00:37:50.119Z,60.74
2023-01-11T00:40:22.674Z,59.65
2023-01-11T00:42:55.204Z,59.12
2023-01-11T00:45:28.073Z,60.38
2023-01-11T00:48:02.383Z,59.56
2023-01-11T00:50:38.117Z,60.46
2023-01-11T00:53:10.639Z,59.83
2023-01-11T00:55:43.155Z,59.46
2023-01-11T00:58:15.692Z,59.22
2023-01-11T01:00:48.228Z,60.22
2023-01-11T01:03:20.781Z,59.59
2023-01-11T01:05:54.889Z,60.36
2023-01-11T01:08:27.417Z,60.45
2023-01-11T01:10:59.950Z,60.38
2023-01-11T01:13:32.480Z,61.20
2023-01-11T01:16:05.394Z,60.63
2023-01-11T01:18:38.003Z,60.91
2023-01-11T01:21:10.687Z,62.63
2023-01-11T01:23:43.220Z,60.83
2023-01-11T01:26:15.754Z,62.05
2023-01-11T01:28:48.545Z,60.31
2023-01-11T01:31:21.098Z,60.51
2023-01-11T01:33:53.785Z,60.15
2023-01-11T01:36:26.325Z,59.21
2023-01-11T01:39:04.452Z,59.45
2023-01-11T01:41:37.553Z,59.74
2023-01-11T01:44:48.741Z,60.28
2023-01-11T01:47:46.240Z,60.31
2023-01-11T01:50:32.866Z,58.94
2023-01-11T01:53:12.698Z,59.39
2023-01-11T01:55:52.078Z,59.60
2023-01-11T01:58:41.366Z,58.56
2023-01-11T02:01:15.599Z,58.81
2023-01-11T02:03:50.704Z,58.54
2023-01-11T02:06:23.933Z,59.94
2023-01-11T02:09:07.731Z,59.12
2023-01-11T02:11:40.583Z,59.74
2023-01-11T02:14:19.151Z,60.21
2023-01-11T02:16:51.772Z,60.45
2023-01-11T02:19:38.241Z,59.41
2023-01-11T02:22:35.112Z,60.42
2023-01-11T02:25:25.526Z,60.51
2023-01-11T02:28:00.645Z,61.29
2023-01-11T02:30:58.964Z,59.69
2023-01-11T02:33:52.791Z,61.12
2023-01-11T02:36:54.357Z,61.43
2023-01-11T02:39:26.836Z,61.73
2023-01-11T02:42:13.844Z,60.92
2023-01-11T02:45:14.915Z,60.78
2023-01-11T02:48:04.321Z,61.63
2023-01-11T02:50:58.332Z,60.21
2023-01-11T02:53:59.114Z,60.74
2023-01-11T02:56:41.778Z,59.84
2023-01-11T02:59:20.518Z,61.34
2023-01-11T03:01:54.727Z,61.09
2023-01-11T03:04:30.065Z,61.32
2023-01-11T03:07:30.942Z,59.06
2023-01-11T03:10:30.775Z,59.23
2023-01-11T03:13:06.183Z,59.39
2023-01-11T03:15:58.966Z,59.61
2023-01-11T03:18:54.068Z,60.09
2023-01-11T03:21:34.517Z,59.69
2023-01-11T03:24:48.038Z,58.96
2023-01-11T03:27:56.713Z,58.50
2023-01-11T03:30:51.793Z,59.30
2023-01-11T03:33:48.616Z,58.69
2023-01-11T03:36:36.537Z,57.89
2023-01-11T03:39:25.862Z,57.95
2023-01-11T03:42:02.620Z,59.58
2023-01-11T03:44:43.369Z,59.86
2023-01-11T03:47:22.145Z,61.71
2023-01-11T03:49:59.152Z,61.18
2023-01-11T03:52:38.038Z,60.03
2023-01-11T03:55:16.367Z,59.77
2023-01-11T03:57:50.587Z,61.49
2023-01-11T04:00:25.990Z,59.99
2023-01-11T04:03:00.054Z,59.80
2023-01-11T04:05:35.458Z,59.71
2023-01-11T04:08:08.001Z,58.32
2023-01-11T04:10:40.544Z,59.38
2023-01-11T04:13:13.080Z,60.14
2023-01-11T04:15:45.936Z,59.77
2023-01-11T04:18:18.486Z,59.77
2023-01-11T04:20:51.031Z,58.36
2023-01-11T04:23:23.567Z,58.51
2023-01-11T04:25:56.092Z,57.48
2023-01-11T04:28:28.619Z,56.99
2023-01-11T04:31:01.166Z,58.42
2023-01-11T04:33:33.686Z,58.74
2023-01-11T04:36:08.593Z,58.16
2023-01-11T04:38:41.154Z,58.41
2023-01-11T04:41:13.711Z,58.55
2023-01-11T04:43:46.236Z,59.73
2023-01-11T04:46:18.751Z,58.89
2023-01-11T04:48:51.803Z,61.04
2023-01-11T04:51:24.372Z,60.00
2023-01-11T04:53:56.960Z,59.64
2023-01-11T04:56:29.586Z,61.54
2023-01-11T04:59:02.131Z,62.96
2023-01-11T05:01:34.669Z,62.66
2023-01-11T05:04:07.246Z,62.24
2023-01-11T05:06:39.936Z,61.23
2023-01-11T05:09:16.024Z,60.63
2023-01-11T05:11:48.678Z,62.42
2023-01-11T05:14:21.412Z,62.33
2023-01-11T05:16:54.030Z,61.65
2023-01-11T05:19:26.614Z,62.95
2023-01-11T05:21:59.190Z,62.30
2023-01-11T05:24:31.779Z,61.48
2023-01-11T05:27:04.364Z,61.23
2023-01-11T05:29:37.003Z,60.34
2023-01-11T05:32:09.925Z,60.89
2023-01-11T05:34:42.545Z,63.69
2023-01-11T05:37:15.166Z,62.37
2023-01-11T05:39:47.736Z,64.22
2023-01-11T05:42:21.267Z,63.37
2023-01-11T05:44:56.824Z,60.95
2023-01-11T05:47:30.683Z,59.71
2023-01-11T05:50:03.486Z,60.31
2023-01-11T05:52:36.062Z,60.71
2023-01-11T05:55:08.835Z,59.12
2023-01-11T05:57:42.252Z,60.62
2023-01-11T06:00:15.339Z,60.18
2023-01-11T06:02:48.140Z,60.57
2023-01-11T06:05:20.764Z,59.42
2023-01-11T06:07:53.919Z,59.49
2023-01-11T06:10:26.531Z,61.57
2023-01-11T06:12:59.169Z,61.41
2023-01-11T06:15:31.792Z,59.92
2023-01-11T06:18:04.487Z,59.69
2023-01-11T06:20:37.176Z,60.39
2023-01-11T06:23:09.777Z,60.22
2023-01-11T06:25:44.019Z,61.36
2023-01-11T06:28:17.948Z,61.53
2023-01-11T06:30:56.087Z,62.47
2023-01-11T06:33:29.818Z,61.95
2023-01-11T06:36:08.419Z,61.03
2023-01-11T06:38:41.623Z,62.04
2023-01-11T06:41:14.230Z,64.04
2023-01-11T06:43:46.942Z,63.70
2023-01-11T06:46:19.869Z,63.00
2023-01-11T06:48:52.513Z,62.51
2023-01-11T06:51:25.107Z,64.06
2023-01-11T06:53:57.688Z,65.42
2023-01-11T06:56:30.277Z,63.28
2023-01-11T06:59:02.853Z,64.46
2023-01-11T07:01:35.717Z,65.49
2023-01-11T07:04:08.386Z,63.51
2023-01-11T07:06:41.049Z,64.73
2023-01-11T07:09:13.690Z,64.71
2023-01-11T07:11:46.400Z,64.90
2023-01-11T07:14:19.036Z,64.75
2023-01-11T07:16:51.650Z,64.41
2023-01-11T07:19:24.298Z,66.72
2023-01-11T07:21:56.899Z,66.27
2023-01-11T07:24:29.607Z,64.64
2023-01-11T07:27:02.391Z,65.30
2023-01-11T07:29:35.069Z,64.30
2023-01-11T07:32:07.943Z,64.19
2023-01-11T07:34:40.621Z,64.04
2023-01-11T07:37:29.146Z,64.94
2023-01-11T07:40:02.061Z,66.66
2023-01-11T07:42:34.734Z,65.49
2023-01-11T07:45:07.982Z,65.70
2023-01-11T07:47:40.608Z,65.65
2023-01-11T07:50:13.246Z,64.59
2023-01-11T07:52:49.857Z,65.29
2023-01-11T07:55:22.632Z,64.03
2023-01-11T07:57:59.167Z,65.48
2023-01-11T08:00:32.431Z,67.62
2023-01-11T08:03:05.161Z,68.71
2023-01-11T08:05:38.063Z,69.06
2023-01-11T08:08:10.729Z,68.89
2023-01-11T08:10:43.336Z,69.28
2023-01-11T08:13:18.426Z,70.41
2023-01-11T08:15:51.141Z,69.61
2023-01-11T08:18:23.817Z,70.54
2023-01-11T08:20:56.435Z,70.81
2023-01-11T08:23:29.087Z,69.73
2023-01-11T08:26:02.577Z,70.77
2023-01-11T08:28:35.169Z,70.07
2023-01-11T08:31:08.468Z,70.38
2023-01-11T08:33:41.094Z,69.67
2023-01-11T08:36:13.773Z,67.75
2023-01-11T08:38:46.359Z,67.05
2023-01-11T08:41:19.018Z,67.55
2023-01-11T08:43:51.981Z,67.48
2023-01-11T08:46:25.318Z,66.55
2023-01-11T08:48:57.916Z,63.87
2023-01-11T08:51:30.588Z,64.68
2023-01-11T08:54:03.216Z,64.88
2023-01-11T08:56:36.577Z,64.65
2023-01-11T08:59:10.119Z,66.72
2023-01-11T09:01:42.722Z,68.09
2023-01-11T09:04:24.892Z,66.84
2023-01-11T09:06:58.089Z,66.39
2023-01-11T09:09:30.664Z,65.98
2023-01-11T09:12:05.647Z,64.23
2023-01-11T09:14:38.526Z,63.16
2023-01-11T09:17:11.145Z,64.46
2023-01-11T09:19:43.792Z,62.92
2023-01-11T09:22:16.476Z,64.00
2023-01-11T09:24:49.246Z,64.37
2023-01-11T09:27:21.812Z,66.33
2023-01-11T09:29:54.442Z,65.80
2023-01-11T09:32:27.032Z,66.40
2023-01-11T09:34:59.684Z,65.96
2023-01-11T09:37:32.551Z,67.05
2023-01-11T09:40:15.462Z,66.77
2023-01-11T09:42:52.612Z,67.05
2023-01-11T09:45:27.947Z,66.84
2023-01-11T09:48:09.116Z,66.23
2023-01-11T09:50:46.869Z,67.46
2023-01-11T09:53:31.429Z,67.87
2023-01-11T09:56:14.238Z,66.80
2023-01-11T09:59:14.740Z,65.28
2023-01-11T10:02:01.852Z,65.37
2023-01-11T10:05:10.039Z,66.12
2023-01-11T10:18:28.388Z,68.10
2023-01-11T10:18:37.854Z,67.27
2023-01-11T10:21:15.133Z,67.74
2023-01-11T10:24:02.818Z,68.19
2023-01-11T10:26:38.952Z,65.96
2023-01-11T10:29:14.835Z,67.28
2023-01-11T10:31:59.403Z,67.44
2023-01-11T10:34:41.156Z,68.62
2023-01-11T10:37:20.554Z,67.59
2023-01-11T10:39:55.851Z,67.36
2023-01-11T10:42:39.794Z,66.91
2023-01-11T10:45:52.243Z,70.33
2023-01-11T10:48:39.942Z,69.79
2023-01-11T10:51:21.279Z,68.00
2023-01-11T10:54:18.801Z,66.25
2023-01-11T10:57:07.201Z,70.65
2023-01-11T10:59:49.761Z,69.73
2023-01-11T11:02:28.274Z,69.18
2023-01-11T11:05:22.253Z,68.80
2023-01-11T11:08:16.542Z,69.11
2023-01-11T11:11:16.769Z,68.02
2023-01-11T11:14:13.516Z,68.41
2023-01-11T11:17:13.109Z,68.00
2023-01-11T11:19:45.882Z,69.00
2023-01-11T11:22:19.418Z,71.11
2023-01-11T11:25:01.397Z,72.37
2023-01-11T11:27:49.175Z,72.50
2023-01-11T11:30:35.883Z,71.53
2023-01-11T11:33:18.832Z,71.18
2023-01-11T11:36:01.496Z,69.51
2023-01-11T11:38:37.854Z,71.78
2023-01-11T11:41:13.297Z,73.10
2023-01-11T11:43:47.463Z,72.37
2023-01-11T11:46:27.426Z,72.90
2023-01-11T11:49:15.835Z,73.70
2023-01-11T11:51:49.071Z,74.13
2023-01-11T11:54:24.649Z,74.84
2023-01-11T11:57:12.395Z,75.51
2023-01-11T11:59:50.631Z,75.74
2023-01-11T12:02:32.168Z,75.13
2023-01-11T12:05:10.287Z,75.56
2023-01-11T12:07:55.186Z,74.36
2023-01-11T12:10:31.803Z,75.11
2023-01-11T12:13:08.930Z,75.68
2023-01-11T12:16:02.688Z,77.18
2023-01-11T12:18:42.618Z,79.04
2023-01-11T12:21:24.491Z,78.47
2023-01-11T12:24:15.004Z,77.36
2023-01-11T12:27:29.789Z,76.58
2023-01-11T12:30:11.083Z,77.34
2023-01-11T12:33:03.399Z,76.42
2023-01-11T12:36:08.148Z,78.65
2023-01-11T12:39:14.071Z,78.96
2023-01-11T12:42:11.174Z,79.06
2023-01-11T12:45:18.265Z,79.64
2023-01-11T12:48:09.595Z,79.38
2023-01-11T12:50:57.072Z,80.52
2023-01-11T12:53:51.480Z,80.16
2023-01-11T12:56:45.885Z,80.64
2023-01-11T13:00:05.631Z,80.64
2023-01-11T13:03:16.447Z,80.17
2023-01-11T13:06:10.319Z,80.23
2023-01-11T13:09:04.611Z,80.84
2023-01-11T13:12:01.719Z,80.53
2023-01-11T13:14:49.661Z,78.90
2023-01-11T13:17:33.601Z,78.47
2023-01-11T13:20:09.139Z,78.45
2023-01-11T13:22:55.259Z,79.09
2023-01-11T13:25:33.970Z,79.00
2023-01-11T13:28:28.048Z,79.47
2023-01-11T13:31:05.189Z,79.55
2023-01-11T13:33:46.613Z,78.37
2023-01-11T13:36:30.219Z,76.40
2023-01-11T13:39:16.551Z,76.91
2023-01-11T13:41:58.986Z,78.43
2023-01-11T13:44:39.237Z,78.21
2023-01-11T13:47:24.032Z,77.33
2023-01-11T13:50:11.513Z,77.70
2023-01-11T13:52:44.114Z,78.68
2023-01-11T13:55:43.793Z,76.55
2023-01-11T13:58:25.706Z,77.18
2023-01-11T14:01:15.478Z,76.99
2023-01-11T14:04:31.014Z,78.87
2023-01-11T14:07:23.461Z,80.36
2023-01-11T14:10:08.602Z,79.34
2023-01-11T14:12:56.299Z,78.54
2023-01-11T14:15:53.232Z,78.41
2023-01-11T14:18:39.348Z,79.75
2023-01-11T14:21:37.954Z,77.04
2023-01-11T14:24:12.499Z,76.11
2023-01-11T14:27:09.627Z,75.83
2023-01-11T14:30:16.703Z,78.98
2023-01-11T14:33:12.115Z,79.77
2023-01-11T14:36:24.454Z,79.14
2023-01-11T14:39:25.169Z,77.41
2023-01-11T14:42:32.045Z,78.27
2023-01-11T14:45:39.299Z,78.23
2023-01-11T14:48:14.875Z,79.49
2023-01-11T14:51:01.889Z,77.75
2023-01-11T14:53:50.041Z,77.56
2023-01-11T14:56:44.004Z,77.98
2023-01-11T14:59:37.617Z,77.30
2023-01-11T15:02:10.206Z,77.79
2023-01-11T15:04:51.694Z,76.34
2023-01-11T15:07:30.353Z,78.74
2023-01-11T15:10:30.830Z,77.78
2023-01-11T15:13:14.716Z,77.41
2023-01-11T15:15:48.899Z,77.91
2023-01-11T15:18:25.292Z,77.94
2023-01-11T15:21:06.902Z,79.43
2023-01-11T15:23:50.285Z,79.02
2023-01-11T15:26:25.775Z,79.67
2023-01-11T15:29:01.944Z,80.16
2023-01-11T15:31:37.400Z,79.77
2023-01-11T15:34:27.507Z,79.46
2023-01-11T15:37:00.056Z,78.58
2023-01-11T15:39:51.335Z,77.68
2023-01-11T15:42:37.688Z,76.11
2023-01-11T15:45:46.424Z,74.14
2023-01-11T15:48:37.809Z,76.19
2023-01-11T15:51:27.493Z,77.49
2023-01-11T15:54:23.179Z,79.59
2023-01-11T15:57:04.874Z,78.58
2023-01-11T16:00:15.395Z,77.84
2023-01-11T16:03:25.175Z,78.48
2023-01-11T16:06:36.898Z,79.38
2023-01-11T16:09:22.817Z,77.35
2023-01-11T16:12:29.226Z,77.70
2023-01-11T16:15:20.443Z,78.09
2023-01-11T16:17:54.353Z,75.19
2023-01-11T16:20:27.595Z,75.93
2023-01-11T16:23:03.342Z,78.17
2023-01-11T16:25:42.102Z,77.36
2023-01-11T16:28:16.436Z,77.81
2023-01-11T16:31:09.328Z,80.36
2023-01-11T16:33:43.229Z,79.10
2023-01-11T16:36:24.923Z,77.71
2023-01-11T16:39:11.151Z,78.36
2023-01-11T16:42:03.191Z,78.40
2023-01-11T16:44:51.550Z,75.26
2023-01-11T16:47:24.226Z,73.77
2023-01-11T16:50:23.463Z,71.50
2023-01-11T16:53:04.871Z,71.95
2023-01-11T16:55:59.638Z,72.54
2023-01-11T16:58:42.120Z,73.60
2023-01-11T17:01:15.534Z,71.94
2023-01-11T17:03:54.607Z,71.88
2023-01-11T17:06:27.234Z,72.78
2023-01-11T17:09:06.683Z,73.22
2023-01-11T17:11:43.941Z,73.16
2023-01-11T17:14:22.647Z,77.10
2023-01-11T17:17:02.877Z,78.94
2023-01-11T17:19:41.996Z,77.19
2023-01-11T17:22:27.346Z,78.49
2023-01-11T17:25:02.914Z,75.53
2023-01-11T17:27:40.551Z,74.50
2023-01-11T17:30:21.678Z,76.52
2023-01-11T17:32:57.419Z,73.81
2023-01-11T17:35:40.894Z,74.95
2023-01-11T17:38:20.578Z,74.64
2023-01-11T17:40:55.297Z,74.81
2023-01-11T17:43:29.438Z,77.06
2023-01-11T17:46:03.962Z,77.09
2023-01-11T17:48:36.622Z,76.17
2023-01-11T17:51:09.635Z,74.41
2023-01-11T17:53:49.743Z,72.98
2023-01-11T17:56:40.012Z,71.66
2023-01-11T17:59:29.128Z,75.49
2023-01-11T18:02:13.055Z,77.21
2023-01-11T18:04:57.338Z,74.66
2023-01-11T18:07:30.298Z,72.49
2023-01-11T18:10:03.848Z,71.77
2023-01-11T18:12:36.641Z,70.45
2023-01-11T18:15:19.786Z,70.26
2023-01-11T18:17:52.412Z,69.99
2023-01-11T18:20:34.387Z,69.24
2023-01-11T18:23:21.187Z,71.71
2023-01-11T18:26:24.865Z,75.90
2023-01-11T18:28:57.472Z,75.06
2023-01-11T18:31:30.402Z,71.78
2023-01-11T18:34:03.817Z,71.59
2023-01-11T18:36:36.388Z,72.07
2023-01-11T18:39:10.679Z,70.67
2023-01-11T18:41:44.847Z,71.09
2023-01-11T18:44:17.569Z,72.20
2023-01-11T18:46:50.236Z,70.28
2023-01-11T18:49:22.912Z,70.71
2023-01-11T18:51:55.496Z,71.04
2023-01-11T18:54:28.107Z,70.80
2023-01-11T18:57:00.719Z,70.44
2023-01-11T18:59:33.975Z,71.62
2023-01-11T19:02:25.378Z,71.42
2023-01-11T19:04:58.068Z,69.55
2023-01-11T19:07:30.706Z,70.41
2023-01-11T19:10:04.364Z,69.81
2023-01-11T19:12:36.945Z,70.71
2023-01-11T19:15:10.149Z,70.61
2023-01-11T19:17:43.347Z,70.51
2023-01-11T19:20:16.111Z,70.48
2023-01-11T19:22:48.707Z,72.03
2023-01-11T19:25:21.441Z,78.08
2023-01-11T19:27:55.033Z,76.37
2023-01-11T19:30:27.850Z,73.24
2023-01-11T19:33:00.455Z,71.34
2023-01-11T19:35:33.075Z,70.55
2023-01-11T19:38:05.731Z,68.89
2023-01-11T19:40:38.307Z,67.83
2023-01-11T19:43:10.961Z,70.33
2023-01-11T19:45:43.545Z,68.72
2023-01-11T19:48:16.111Z,69.03
2023-01-11T19:50:48.763Z,69.57
2023-01-11T19:53:21.402Z,69.06
2023-01-11T19:55:53.996Z,70.06
2023-01-11T19:58:26.752Z,70.07
2023-01-11T20:00:59.843Z,69.45
2023-01-11T20:03:32.458Z,69.42
2023-01-11T20:06:07.975Z,68.93
2023-01-11T20:08:40.597Z,68.20
2023-01-11T20:11:15.380Z,69.64
2023-01-11T20:13:48.747Z,70.27
2023-01-11T20:16:23.523Z,69.52
2023-01-11T20:18:57.364Z,70.18
2023-01-11T20:21:30.175Z,70.82
2023-01-11T20:24:04.612Z,69.85
2023-01-11T20:26:37.224Z,71.93
2023-01-11T20:29:09.891Z,71.43
2023-01-11T20:31:42.572Z,75.39
2023-01-11T20:34:17.134Z,74.61
2023-01-11T20:36:49.738Z,75.87
2023-01-11T20:39:22.329Z,77.69
2023-01-11T20:41:55.003Z,77.42
2023-01-11T20:44:27.811Z,74.46
2023-01-11T20:47:00.495Z,72.35
2023-01-11T20:49:33.235Z,73.19
2023-01-11T20:52:05.958Z,72.20
2023-01-11T20:54:38.504Z,70.97
2023-01-11T20:57:11.087Z,71.26
2023-01-11T20:59:43.675Z,71.30
2023-01-11T21:02:16.339Z,71.72
2023-01-11T21:04:48.982Z,71.14
2023-01-11T21:07:21.629Z,70.82
2023-01-11T21:09:54.252Z,72.92
2023-01-11T21:12:26.845Z,71.48
2023-01-11T21:14:59.410Z,70.19
2023-01-11T21:17:32.031Z,68.90
2023-01-11T21:20:05.587Z,69.30
2023-01-11T21:22:38.219Z,70.79
2023-01-11T21:25:10.836Z,71.61
2023-01-11T21:27:43.532Z,70.16
2023-01-11T21:30:16.562Z,69.23
2023-01-11T21:32:49.168Z,71.04
2023-01-11T21:35:25.163Z,69.74
2023-01-11T21:37:58.124Z,69.99
2023-01-11T21:40:30.800Z,69.55
2023-01-11T21:43:03.455Z,70.00
2023-01-11T21:45:36.039Z,74.90
2023-01-11T21:48:08.661Z,79.95
2023-01-11T21:50:45.469Z,77.97
2023-01-11T21:53:18.306Z,73.83
2023-01-11T21:55:50.947Z,71.07
2023-01-11T21:58:23.615Z,70.52
2023-01-11T22:00:56.294Z,70.04
2023-01-11T22:03:29.420Z,70.36
2023-01-11T22:06:03.996Z,74.46
2023-01-11T22:08:38.518Z,77.55
2023-01-11T22:11:13.369Z,76.05
2023-01-11T22:13:46.012Z,73.40
2023-01-11T22:16:18.796Z,70.77
2023-01-11T22:18:51.388Z,70.57
2023-01-11T22:21:24.535Z,69.44
2023-01-11T22:23:59.084Z,68.04
2023-01-11T22:26:32.706Z,75.07
2023-01-11T22:29:07.720Z,73.22
2023-01-11T22:32:00.520Z,69.80
2023-01-11T22:34:33.159Z,68.71
2023-01-11T22:37:06.643Z,67.99
2023-01-11T22:39:39.227Z,68.00
2023-01-11T22:42:11.848Z,71.19
2023-01-11T22:44:44.451Z,69.72
2023-01-11T22:47:17.121Z,68.66
2023-01-11T22:49:49.739Z,67.87
2023-01-11T22:52:22.375Z,71.34
2023-01-11T22:54:55.033Z,72.55
2023-01-11T22:57:27.794Z,71.72
2023-01-11T23:00:00.443Z,72.77
2023-01-11T23:02:33.055Z,72.00
2023-01-11T23:05:06.093Z,73.70
2023-01-11T23:07:38.723Z,73.76
2023-01-11T23:10:11.364Z,72.71
2023-01-11T23:12:44.175Z,69.18
2023-01-11T23:15:16.945Z,70.27
2023-01-11T23:17:49.652Z,68.17
2023-01-11T23:20:22.346Z,68.20
2023-01-11T23:22:54.987Z,66.60
2023-01-11T23:25:27.700Z,66.43
2023-01-11T23:28:00.519Z,66.50
2023-01-11T23:30:33.143Z,66.74
2023-01-11T23:33:05.891Z,65.87
2023-01-11T23:35:38.530Z,64.94
2023-01-11T23:38:11.160Z,65.48
2023-01-11T23:40:43.738Z,67.05
2023-01-11T23:43:16.507Z,66.25
2023-01-11T23:45:49.549Z,68.75
2023-01-11T23:48:26.372Z,67.68
2023-01-11T23:51:03.924Z,68.92
2023-01-11T23:53:36.664Z,69.33
2023-01-11T23:56:09.299Z,70.27
2023-01-11T23:58:41.865Z,69.95
